createdAt,value
2023-08-19T00:00:22.732Z,62.92
2023-08-19T00:02:50.399Z,65.35
2023-08-19T00:05:18.546Z,65.00
2023-08-19T00:07:45.657Z,62.67
2023-08-19T00:10:12.644Z,60.50
2023-08-19T00:12:39.582Z,57.83
2023-08-19T00:15:07.223Z,54.35
2023-08-19T00:17:34.547Z,59.55
2023-08-19T00:20:01.704Z,58.80
2023-08-19T00:22:28.520Z,51.53
2023-08-19T00:24:55.497Z,42.38
2023-08-19T00:27:22.430Z,41.55
2023-08-19T00:29:49.512Z,27.83
2023-08-19T00:32:16.801Z,25.42
2023-08-19T00:34:44.411Z,28.08
2023-08-19T00:37:11.321Z,23.45
2023-08-19T00:39:38.627Z,24.52
2023-08-19T00:42:07.952Z,25.55
2023-08-19T00:44:35.583Z,23.98
2023-08-19T00:47:03.093Z,20.65
2023-08-19T00:49:30.954Z,23.08
2023-08-19T00:51:58.840Z,22.02
2023-08-19T00:54:25.777Z,21.55
2023-08-19T00:56:53.038Z,21.40
2023-08-19T00:59:20.932Z,20.63
2023-08-19T01:01:47.882Z,21.02
2023-08-19T01:04:15.168Z,17.52
2023-08-19T01:07:04.092Z,19.13
2023-08-19T01:09:44.940Z,19.40
2023-08-19T01:12:44.087Z,18.33
2023-08-19T01:15:22.970Z,17.90
2023-08-19T01:17:50.330Z,15.70
2023-08-19T01:20:19.824Z,15.57
2023-08-19T01:23:07.630Z,15.18
2023-08-19T01:25:34.618Z,14.27
2023-08-19T01:28:05.066Z,15.85
2023-08-19T01:30:32.986Z,14.73
2023-08-19T01:32:59.882Z,16.20
2023-08-19T01:35:27.069Z,14.35
2023-08-19T01:37:58.515Z,13.90
2023-08-19T01:40:25.708Z,13.05
2023-08-19T01:42:55.931Z,13.15
2023-08-19T01:45:23.041Z,12.15
2023-08-19T01:47:54.551Z,11.40
2023-08-19T01:50:21.565Z,10.25
2023-08-19T01:52:48.710Z,11.13
2023-08-19T01:55:15.774Z,10.23
2023-08-19T01:57:42.750Z,10.35
2023-08-19T02:00:10.016Z,10.30
2023-08-19T02:02:43.239Z,10.20
2023-08-19T02:05:13.724Z,9.43
2023-08-19T02:07:41.017Z,10.68
2023-08-19T02:10:08.528Z,10.38
2023-08-19T02:12:35.559Z,10.25
2023-08-19T02:15:02.888Z,9.25
2023-08-19T02:17:30.145Z,9.65
2023-08-19T02:19:58.811Z,10.50
2023-08-19T02:22:25.694Z,8.57
2023-08-19T02:24:52.660Z,9.00
2023-08-19T02:27:19.496Z,9.77
2023-08-19T02:29:46.421Z,10.05
2023-08-19T02:32:13.355Z,8.27
2023-08-19T02:34:40.372Z,8.43
2023-08-19T02:37:07.346Z,9.15
2023-08-19T02:39:34.306Z,10.35
2023-08-19T02:42:01.230Z,8.30
2023-08-19T02:44:28.112Z,8.90
2023-08-19T02:46:54.968Z,11.70
2023-08-19T02:49:21.952Z,9.60
2023-08-19T02:51:48.808Z,8.95
2023-08-19T02:54:15.743Z,8.98
2023-08-19T02:56:42.635Z,7.90
2023-08-19T02:59:10.049Z,9.10
2023-08-19T03:01:36.952Z,9.52
2023-08-19T03:04:04.049Z,8.65
2023-08-19T03:06:30.898Z,8.55
2023-08-19T03:08:57.886Z,8.43
2023-08-19T03:11:24.843Z,9.07
2023-08-19T03:13:51.911Z,8.23
2023-08-19T03:16:18.897Z,8.57
2023-08-19T03:18:45.869Z,9.27
2023-08-19T03:21:12.867Z,10.00
2023-08-19T03:23:39.785Z,9.13
2023-08-19T03:26:06.796Z,8.35
2023-08-19T03:28:34.427Z,9.00
2023-08-19T03:31:03.728Z,10.07
2023-08-19T03:33:30.720Z,9.95
2023-08-19T03:36:01.362Z,13.38
2023-08-19T03:38:29.482Z,9.10
2023-08-19T03:40:56.376Z,10.30
2023-08-19T03:43:23.265Z,8.73
2023-08-19T03:45:50.155Z,11.35
2023-08-19T03:48:17.065Z,9.75
2023-08-19T03:50:43.972Z,12.88
2023-08-19T03:53:10.817Z,9.38
2023-08-19T03:55:37.817Z,12.73
2023-08-19T03:58:04.761Z,10.30
2023-08-19T04:00:31.953Z,13.18
2023-08-19T04:02:58.888Z,11.63
2023-08-19T04:05:25.833Z,10.38
2023-08-19T04:07:52.697Z,8.88
2023-08-19T04:10:19.652Z,11.10
2023-08-19T04:12:46.536Z,10.02
2023-08-19T04:15:13.714Z,12.27
2023-08-19T04:17:40.692Z,11.07
2023-08-19T04:20:11.809Z,11.05
2023-08-19T04:22:38.747Z,16.08
2023-08-19T04:25:06.034Z,11.13
2023-08-19T04:27:33.288Z,9.95
2023-08-19T04:30:01.064Z,11.43
2023-08-19T04:32:31.789Z,10.98
2023-08-19T04:35:00.689Z,11.88
2023-08-19T04:37:27.827Z,10.52
2023-08-19T04:39:56.137Z,9.40
2023-08-19T04:42:28.633Z,10.23
2023-08-19T04:44:55.796Z,12.88
2023-08-19T04:47:22.808Z,11.60
2023-08-19T04:49:49.811Z,13.52
2023-08-19T04:52:17.255Z,12.40
2023-08-19T04:54:44.233Z,9.27
2023-08-19T04:57:11.078Z,14.13
2023-08-19T04:59:38.027Z,12.18
2023-08-19T05:02:05.229Z,11.20
2023-08-19T05:04:33.644Z,12.23
2023-08-19T05:07:00.781Z,13.95
2023-08-19T05:09:27.927Z,15.82
2023-08-19T05:11:54.868Z,13.95
2023-08-19T05:14:21.802Z,15.98
2023-08-19T05:16:49.135Z,15.90
2023-08-19T05:19:17.839Z,15.05
2023-08-19T05:21:45.828Z,15.73
2023-08-19T05:24:13.176Z,13.60
2023-08-19T05:26:40.698Z,14.27
2023-08-19T05:29:07.879Z,15.40
2023-08-19T05:31:35.211Z,14.43
2023-08-19T05:34:02.269Z,16.30
2023-08-19T05:36:29.653Z,18.20
2023-08-19T05:38:56.552Z,18.85
2023-08-19T05:41:23.481Z,16.27
2023-08-19T05:43:50.708Z,16.92
2023-08-19T05:46:17.765Z,14.63
2023-08-19T05:48:44.718Z,17.10
2023-08-19T05:51:11.645Z,16.38
2023-08-19T05:53:39.445Z,17.45
2023-08-19T05:56:06.379Z,14.68
2023-08-19T05:58:33.912Z,14.57
2023-08-19T06:01:01.433Z,14.85
2023-08-19T06:03:28.835Z,16.45
2023-08-19T06:05:55.862Z,18.80
2023-08-19T06:08:22.998Z,18.02
2023-08-19T06:11:01.578Z,18.83
2023-08-19T06:13:28.564Z,13.43
2023-08-19T06:15:55.769Z,14.75
2023-08-19T06:18:23.088Z,17.02
2023-08-19T06:20:51.734Z,17.65
2023-08-19T06:23:19.459Z,18.52
2023-08-19T06:25:48.367Z,17.70
2023-08-19T06:28:15.615Z,13.15
2023-08-19T06:30:42.766Z,15.73
2023-08-19T06:33:10.253Z,16.13
2023-08-19T06:35:38.139Z,18.35
2023-08-19T06:38:08.544Z,14.63
2023-08-19T06:40:35.533Z,15.65
2023-08-19T06:43:04.071Z,17.00
2023-08-19T06:45:31.313Z,15.68
2023-08-19T06:47:59.037Z,13.15
2023-08-19T06:50:28.451Z,18.42
2023-08-19T06:52:55.709Z,18.95
2023-08-19T06:55:22.852Z,15.35
2023-08-19T06:57:55.061Z,14.00
2023-08-19T07:00:22.063Z,18.60
2023-08-19T07:02:49.635Z,16.30
2023-08-19T07:05:17.198Z,13.40
2023-08-19T07:07:52.148Z,14.95
2023-08-19T07:10:21.151Z,14.23
2023-08-19T07:12:48.586Z,11.38
2023-08-19T07:15:16.559Z,15.13
2023-08-19T07:17:48.690Z,18.63
2023-08-19T07:20:17.199Z,16.88
2023-08-19T07:22:44.966Z,17.27
2023-08-19T07:25:12.597Z,15.95
2023-08-19T07:27:39.668Z,14.30
2023-08-19T07:30:07.269Z,14.70
2023-08-19T07:32:35.952Z,12.55
2023-08-19T07:35:06.745Z,11.75
2023-08-19T07:37:34.352Z,13.18
2023-08-19T07:40:01.348Z,12.18
2023-08-19T07:42:29.227Z,10.18
2023-08-19T07:44:56.247Z,13.23
2023-08-19T07:47:23.165Z,13.48
2023-08-19T07:49:50.169Z,12.68
2023-08-19T07:52:17.125Z,14.68
2023-08-19T07:54:45.886Z,13.32
2023-08-19T07:57:15.129Z,12.82
2023-08-19T07:59:42.127Z,11.85
2023-08-19T08:02:08.987Z,10.82
2023-08-19T08:04:36.327Z,14.00
2023-08-19T08:07:04.219Z,12.02
2023-08-19T08:09:31.178Z,14.68
2023-08-19T08:11:58.276Z,13.27
2023-08-19T08:14:25.135Z,13.57
2023-08-19T08:16:52.368Z,12.23
2023-08-19T08:19:19.451Z,12.98
2023-08-19T08:21:46.606Z,14.93
2023-08-19T08:24:13.701Z,15.02
2023-08-19T08:26:40.604Z,10.88
2023-08-19T08:29:07.503Z,15.63
2023-08-19T08:31:34.558Z,17.75
2023-08-19T08:34:01.740Z,14.63
2023-08-19T08:36:29.097Z,12.38
2023-08-19T08:38:56.058Z,10.75
2023-08-19T08:41:23.131Z,14.45
2023-08-19T08:43:50.231Z,8.95
2023-08-19T08:46:17.949Z,11.43
2023-08-19T08:48:44.845Z,12.52
2023-08-19T08:51:12.268Z,14.73
2023-08-19T08:53:39.329Z,9.15
2023-08-19T08:56:07.081Z,12.07
2023-08-19T08:58:34.253Z,13.63
2023-08-19T09:01:03.365Z,14.20
2023-08-19T09:03:33.477Z,10.40
2023-08-19T09:06:04.518Z,11.65
2023-08-19T09:08:53.890Z,13.07
2023-08-19T09:11:23.614Z,11.05
2023-08-19T09:13:56.441Z,10.60
2023-08-19T09:16:23.320Z,10.93
2023-08-19T09:18:50.211Z,10.45
2023-08-19T09:21:17.336Z,9.88
2023-08-19T09:23:44.379Z,10.20
2023-08-19T09:26:11.731Z,8.43
2023-08-19T09:28:39.232Z,9.02
2023-08-19T09:31:22.652Z,9.45
2023-08-19T09:33:49.812Z,7.63
2023-08-19T09:36:16.868Z,10.00
2023-08-19T09:38:44.173Z,6.55
2023-08-19T09:41:13.845Z,6.65
2023-08-19T09:43:41.262Z,7.13
2023-08-19T09:46:09.163Z,8.02
2023-08-19T09:48:36.388Z,7.38
2023-08-19T09:51:03.991Z,6.30
2023-08-19T09:53:33.859Z,9.38
2023-08-19T09:56:00.865Z,7.35
2023-08-19T09:58:27.960Z,8.63
2023-08-19T10:00:55.015Z,7.78
2023-08-19T10:03:22.742Z,9.30
2023-08-19T10:05:53.504Z,8.43
2023-08-19T10:08:21.409Z,9.45
2023-08-19T10:10:48.613Z,9.07
2023-08-19T10:13:16.599Z,7.22
2023-08-19T10:15:47.033Z,5.93
2023-08-19T10:18:25.249Z,7.30
2023-08-19T10:20:55.053Z,6.53
2023-08-19T10:23:22.309Z,7.80
2023-08-19T10:25:49.522Z,7.22
2023-08-19T10:28:29.607Z,7.05
2023-08-19T10:31:07.169Z,8.43
2023-08-19T10:33:43.991Z,7.28
2023-08-19T10:36:18.442Z,6.18
2023-08-19T10:38:49.129Z,8.30
2023-08-19T10:41:38.925Z,7.88
2023-08-19T10:44:12.514Z,8.05
2023-08-19T10:46:49.285Z,6.63
2023-08-19T10:49:20.923Z,6.65
2023-08-19T10:52:06.673Z,10.25
2023-08-19T10:54:44.617Z,8.30
2023-08-19T10:57:27.341Z,8.50
2023-08-19T10:59:59.888Z,9.02
2023-08-19T11:02:28.500Z,11.70
2023-08-19T11:04:55.769Z,9.20
2023-08-19T11:07:22.686Z,7.47
2023-08-19T11:09:50.438Z,9.98
2023-08-19T11:12:21.823Z,7.85
2023-08-19T11:14:52.426Z,9.57
2023-08-19T11:17:20.929Z,12.43
2023-08-19T11:19:47.769Z,8.65
2023-08-19T11:22:17.589Z,10.32
2023-08-19T11:24:44.692Z,8.48
2023-08-19T11:27:11.861Z,8.20
2023-08-19T11:29:39.647Z,10.10
2023-08-19T11:32:10.120Z,8.45
2023-08-19T11:34:37.089Z,7.88
2023-08-19T11:37:06.723Z,6.57
2023-08-19T11:39:36.697Z,7.63
2023-08-19T11:42:03.829Z,7.97
2023-08-19T11:44:31.429Z,9.40
2023-08-19T11:46:58.605Z,11.63
2023-08-19T11:49:29.873Z,9.40
2023-08-19T11:51:56.983Z,10.98
2023-08-19T11:54:25.916Z,10.43
2023-08-19T11:56:54.571Z,8.88
2023-08-19T11:59:31.221Z,9.70
2023-08-19T12:01:58.745Z,9.43
2023-08-19T12:04:25.702Z,9.88
2023-08-19T12:06:52.594Z,8.20
2023-08-19T12:09:19.861Z,9.10
2023-08-19T12:11:49.783Z,10.85
2023-08-19T12:14:16.876Z,9.45
2023-08-19T12:16:43.829Z,9.20
2023-08-19T12:19:10.768Z,8.70
2023-08-19T12:21:37.693Z,7.35
2023-08-19T12:24:05.189Z,10.73
2023-08-19T12:26:31.987Z,9.57
2023-08-19T12:28:58.994Z,10.43
2023-08-19T12:31:29.603Z,9.88
2023-08-19T12:33:57.032Z,10.02
2023-08-19T12:36:23.889Z,8.88
2023-08-19T12:38:50.832Z,7.47
2023-08-19T12:41:17.656Z,9.52
2023-08-19T12:43:44.634Z,11.02
2023-08-19T12:46:11.531Z,9.75
2023-08-19T12:48:39.359Z,7.43
2023-08-19T12:51:06.282Z,7.75
2023-08-19T12:53:33.258Z,8.05
2023-08-19T12:56:00.291Z,8.30
2023-08-19T12:58:27.239Z,10.82
2023-08-19T13:00:54.217Z,10.85
2023-08-19T13:03:21.395Z,6.93
2023-08-19T13:05:48.603Z,9.23
2023-08-19T13:08:15.555Z,7.82
2023-08-19T13:10:44.098Z,10.73
2023-08-19T13:13:11.535Z,8.93
2023-08-19T13:15:39.121Z,13.00
2023-08-19T13:18:06.389Z,9.95
2023-08-19T13:20:33.735Z,8.70
2023-08-19T13:23:00.869Z,12.93
2023-08-19T13:25:29.031Z,10.60
2023-08-19T13:27:55.993Z,10.40
2023-08-19T13:30:25.251Z,10.88
2023-08-19T13:32:52.184Z,8.65
2023-08-19T13:35:19.771Z,11.77
2023-08-19T13:37:46.888Z,8.45
2023-08-19T13:40:13.725Z,12.85
2023-08-19T13:42:40.681Z,6.03
2023-08-19T13:45:08.436Z,9.68
2023-08-19T13:47:36.098Z,8.60
2023-08-19T13:50:06.664Z,7.57
2023-08-19T13:52:38.038Z,10.73
2023-08-19T13:55:07.212Z,6.68
2023-08-19T13:57:34.548Z,7.30
2023-08-19T14:00:01.853Z,7.03
2023-08-19T14:02:31.288Z,10.38
2023-08-19T14:04:58.261Z,9.57
2023-08-19T14:07:25.063Z,9.20
2023-08-19T14:09:52.053Z,9.73
2023-08-19T14:12:19.232Z,8.85
2023-08-19T14:14:46.028Z,10.45
2023-08-19T14:17:15.962Z,10.38
2023-08-19T14:19:42.848Z,7.25
2023-08-19T14:22:09.747Z,11.88
2023-08-19T14:24:36.622Z,9.88
2023-08-19T14:27:04.819Z,12.77
2023-08-19T14:29:31.815Z,9.50
2023-08-19T14:31:58.804Z,10.00
2023-08-19T14:34:25.771Z,10.73
2023-08-19T14:36:52.831Z,11.52
2023-08-19T14:39:20.014Z,6.95
2023-08-19T14:41:49.200Z,9.45
2023-08-19T14:44:16.300Z,7.03
2023-08-19T14:46:43.287Z,10.45
2023-08-19T14:49:10.180Z,9.10
2023-08-19T14:51:37.231Z,9.43
2023-08-19T14:54:04.374Z,13.13
2023-08-19T14:56:31.793Z,10.52
2023-08-19T14:58:58.729Z,9.95
2023-08-19T15:01:25.684Z,11.02
2023-08-19T15:03:52.669Z,9.23
2023-08-19T15:06:22.526Z,11.35
2023-08-19T15:08:49.524Z,10.13
2023-08-19T15:11:16.573Z,8.80
2023-08-19T15:13:43.434Z,11.23
2023-08-19T15:16:10.299Z,7.55
2023-08-19T15:18:37.248Z,7.47
2023-08-19T15:21:04.308Z,12.07
2023-08-19T15:23:31.211Z,8.40
2023-08-19T15:25:58.002Z,12.73
2023-08-19T15:28:24.867Z,6.75
2023-08-19T15:30:51.703Z,9.00
2023-08-19T15:33:19.043Z,10.48
2023-08-19T15:35:45.892Z,10.07
2023-08-19T15:38:12.802Z,9.82
2023-08-19T15:40:40.840Z,9.48
2023-08-19T15:43:07.951Z,9.52
2023-08-19T15:45:34.795Z,10.25
2023-08-19T15:48:01.751Z,8.73
2023-08-19T15:50:28.593Z,8.45
2023-08-19T15:52:55.541Z,12.30
2023-08-19T15:55:22.528Z,9.60
2023-08-19T15:57:49.470Z,8.00
2023-08-19T16:00:16.528Z,9.65
2023-08-19T16:02:43.391Z,8.90
2023-08-19T16:05:10.784Z,8.40
2023-08-19T16:07:39.738Z,9.57
2023-08-19T16:10:12.875Z,9.30
2023-08-19T16:12:40.110Z,9.20
2023-08-19T16:15:07.972Z,11.77
2023-08-19T16:17:35.339Z,10.55
2023-08-19T16:20:02.357Z,9.25
2023-08-19T16:22:29.375Z,11.80
2023-08-19T16:24:56.313Z,11.02
2023-08-19T16:27:26.059Z,10.80
2023-08-19T16:29:53.484Z,11.60
2023-08-19T16:32:20.635Z,8.75
2023-08-19T16:34:47.515Z,12.60
2023-08-19T16:37:14.345Z,12.20
2023-08-19T16:39:41.254Z,9.60
2023-08-19T16:42:08.076Z,10.82
2023-08-19T16:44:35.602Z,11.95
2023-08-19T16:47:02.500Z,10.38
2023-08-19T16:49:29.507Z,13.20
2023-08-19T16:51:56.309Z,12.38
2023-08-19T16:54:23.186Z,11.07
2023-08-19T16:56:50.420Z,10.48
2023-08-19T16:59:17.409Z,9.90
2023-08-19T17:01:44.275Z,6.97
2023-08-19T17:04:13.335Z,10.27
2023-08-19T17:06:40.122Z,8.48
2023-08-19T17:09:09.859Z,9.75
2023-08-19T17:11:36.714Z,8.07
2023-08-19T17:14:03.773Z,11.93
2023-08-19T17:16:30.929Z,14.15
2023-08-19T17:18:57.822Z,12.50
2023-08-19T17:21:24.724Z,12.57
2023-08-19T17:23:51.648Z,11.85
2023-08-19T17:26:18.547Z,11.43
2023-08-19T17:28:45.389Z,10.65
2023-08-19T17:31:12.376Z,8.48
2023-08-19T17:33:39.465Z,10.32
2023-08-19T17:36:06.623Z,14.45
2023-08-19T17:38:43.393Z,11.30
2023-08-19T17:41:10.471Z,12.10
2023-08-19T17:43:37.314Z,10.52
2023-08-19T17:46:04.758Z,11.80
2023-08-19T17:48:31.939Z,12.30
2023-08-19T17:51:00.277Z,11.32
2023-08-19T17:53:28.758Z,9.32
2023-08-19T17:55:56.681Z,13.20
2023-08-19T17:58:24.416Z,9.50
2023-08-19T18:00:51.366Z,10.88
2023-08-19T18:03:18.389Z,12.85
2023-08-19T18:05:45.528Z,10.90
2023-08-19T18:08:12.900Z,10.80
2023-08-19T18:10:40.473Z,13.80
2023-08-19T18:13:07.771Z,11.52
2023-08-19T18:15:34.576Z,11.85
2023-08-19T18:18:01.621Z,8.25
2023-08-19T18:20:28.641Z,9.98
2023-08-19T18:22:55.517Z,9.52
2023-08-19T18:25:25.239Z,10.32
2023-08-19T18:27:52.250Z,7.03
2023-08-19T18:30:19.398Z,10.82
2023-08-19T18:32:46.408Z,12.18
2023-08-19T18:35:18.094Z,9.65
2023-08-19T18:37:45.276Z,8.00
2023-08-19T18:40:13.517Z,10.82
2023-08-19T18:42:40.551Z,12.02
2023-08-19T18:45:15.736Z,9.52
2023-08-19T18:48:02.561Z,10.65
2023-08-19T18:50:29.686Z,12.40
2023-08-19T18:52:56.620Z,9.23
2023-08-19T18:55:23.509Z,9.20
2023-08-19T18:57:50.307Z,10.57
2023-08-19T19:00:17.730Z,11.73
2023-08-19T19:02:44.652Z,9.48
2023-08-19T19:05:11.888Z,13.20
2023-08-19T19:07:39.138Z,11.52
2023-08-19T19:10:06.689Z,9.40
2023-08-19T19:12:33.518Z,9.60
2023-08-19T19:15:00.325Z,9.38
2023-08-19T19:17:28.193Z,8.32
2023-08-19T19:19:55.068Z,10.48
2023-08-19T19:22:21.910Z,9.65
2023-08-19T19:24:48.682Z,9.10
2023-08-19T19:27:15.569Z,8.70
2023-08-19T19:29:42.466Z,12.50
2023-08-19T19:32:09.355Z,11.02
2023-08-19T19:34:36.328Z,11.70
2023-08-19T19:37:03.985Z,13.23
2023-08-19T19:39:30.852Z,11.65
2023-08-19T19:41:57.814Z,10.45
2023-08-19T19:44:26.747Z,13.88
2023-08-19T19:46:55.492Z,8.98
2023-08-19T19:49:22.622Z,12.02
2023-08-19T19:51:49.450Z,9.68
2023-08-19T19:54:16.326Z,10.90
2023-08-19T19:56:43.357Z,9.15
2023-08-19T19:59:10.815Z,10.63
2023-08-19T20:01:37.885Z,9.48
2023-08-19T20:04:06.195Z,10.88
2023-08-19T20:06:33.099Z,12.10
2023-08-19T20:09:01.085Z,10.52
2023-08-19T20:11:28.148Z,13.70
2023-08-19T20:13:55.004Z,13.20
2023-08-19T20:16:21.969Z,13.57
2023-08-19T20:18:48.961Z,10.05
2023-08-19T20:21:15.878Z,12.95
2023-08-19T20:23:42.855Z,12.10
2023-08-19T20:26:09.772Z,11.18
2023-08-19T20:28:36.964Z,13.15
2023-08-19T20:31:06.432Z,13.63
2023-08-19T20:33:33.272Z,13.80
2023-08-19T20:36:00.179Z,8.95
2023-08-19T20:38:26.961Z,13.18
2023-08-19T20:40:56.710Z,13.52
2023-08-19T20:43:25.798Z,10.10
2023-08-19T20:45:53.378Z,14.45
2023-08-19T20:48:21.211Z,14.38
2023-08-19T20:50:48.147Z,12.55
2023-08-19T20:53:15.046Z,14.25
2023-08-19T20:55:41.867Z,12.57
2023-08-19T20:58:08.877Z,12.50
2023-08-19T21:00:38.472Z,13.07
2023-08-19T21:03:05.599Z,15.60
2023-08-19T21:05:32.475Z,13.35
2023-08-19T21:07:59.428Z,12.52
2023-08-19T21:10:26.387Z,10.20
2023-08-19T21:12:53.240Z,16.20
2023-08-19T21:15:24.925Z,15.35
2023-08-19T21:17:51.817Z,9.73
2023-08-19T21:20:18.823Z,14.07
2023-08-19T21:22:46.297Z,16.95
2023-08-19T21:25:13.120Z,14.15
2023-08-19T21:27:41.446Z,12.75
2023-08-19T21:30:08.724Z,15.77
2023-08-19T21:32:35.782Z,18.75
2023-08-19T21:35:02.895Z,13.77
2023-08-19T21:37:30.277Z,13.25
2023-08-19T21:39:57.193Z,14.15
2023-08-19T21:42:24.150Z,16.50
2023-08-19T21:44:51.092Z,13.70
2023-08-19T21:47:17.987Z,11.20
2023-08-19T21:49:44.783Z,12.95
2023-08-19T21:52:12.756Z,14.85
2023-08-19T21:54:41.754Z,14.05
2023-08-19T21:57:08.755Z,11.60
2023-08-19T21:59:35.607Z,12.35
2023-08-19T22:02:02.591Z,13.93
2023-08-19T22:04:29.730Z,15.30
2023-08-19T22:06:56.751Z,11.82
2023-08-19T22:09:23.616Z,17.00
2023-08-19T22:11:52.868Z,15.48
2023-08-19T22:14:19.825Z,14.52
2023-08-19T22:16:46.884Z,17.73
2023-08-19T22:19:13.694Z,15.05
2023-08-19T22:21:40.851Z,18.10
2023-08-19T22:24:10.911Z,14.13
2023-08-19T22:26:38.003Z,14.88
2023-08-19T22:29:06.040Z,15.13
2023-08-19T22:31:35.172Z,13.65
2023-08-19T22:34:03.716Z,13.95
2023-08-19T22:36:30.585Z,15.52
2023-08-19T22:38:57.543Z,14.25
2023-08-19T22:41:24.384Z,15.27
2023-08-19T22:43:51.176Z,13.63
2023-08-19T22:46:18.181Z,15.18
2023-08-19T22:48:45.081Z,17.85
2023-08-19T22:51:12.021Z,19.02
2023-08-19T22:53:38.952Z,16.05
2023-08-19T22:56:05.925Z,12.93
2023-08-19T22:58:32.797Z,16.48
2023-08-19T23:00:59.795Z,13.07
2023-08-19T23:03:26.619Z,13.80
2023-08-19T23:05:56.412Z,17.20
2023-08-19T23:08:23.663Z,14.13
2023-08-19T23:10:50.485Z,14.73
2023-08-19T23:13:17.507Z,14.80
2023-08-19T23:15:44.388Z,16.25
2023-08-19T23:18:11.393Z,14.38
2023-08-19T23:20:41.045Z,17.27
2023-08-19T23:23:07.968Z,17.42
2023-08-19T23:25:34.863Z,17.60
2023-08-19T23:28:01.705Z,16.25
2023-08-19T23:30:28.659Z,13.65
2023-08-19T23:32:55.631Z,13.65
2023-08-19T23:35:22.440Z,14.00
2023-08-19T23:37:49.617Z,12.90
2023-08-19T23:40:16.488Z,12.43
2023-08-19T23:42:43.387Z,13.55
2023-08-19T23:45:11.228Z,14.30
2023-08-19T23:47:38.895Z,15.68
2023-08-19T23:50:06.568Z,15.18
2023-08-19T23:52:35.779Z,16.33
2023-08-19T23:55:02.629Z,17.63
2023-08-19T23:57:29.738Z,13.93
2023-08-19T23:59:56.943Z,13.75
